sensor_id;sensor_type;location;lat;lon;timestamp;temperature;humidity
14749;DHT22;7466;53.574;9.976;2022-10-16T00:01:28;14.30;99.90
14749;DHT22;7466;53.574;9.976;2022-10-16T00:03:58;14.30;99.90
14749;DHT22;7466;53.574;9.976;2022-10-16T00:06:25;14.30;99.90
14749;DHT22;7466;53.574;9.976;2022-10-16T00:08:52;14.30;99.90
14749;DHT22;7466;53.574;9.976;2022-10-16T00:11:21;14.30;99.90
14749;DHT22;7466;53.574;9.976;2022-10-16T00:13:51;14.30;99.90
14749;DHT22;7466;53.574;9.976;2022-10-16T00:16:19;14.30;99.90
14749;DHT22;7466;53.574;9.976;2022-10-16T00:18:46;14.30;99.90
14749;DHT22;7466;53.574;9.976;2022-10-16T00:21:15;14.30;99.90
14749;DHT22;7466;53.574;9.976;2022-10-16T00:23:42;14.30;99.90
14749;DHT22;7466;53.574;9.976;2022-10-16T00:26:12;14.30;99.90
14749;DHT22;7466;53.574;9.976;2022-10-16T00:28:39;14.30;99.90
14749;DHT22;7466;53.574;9.976;2022-10-16T00:31:09;14.40;99.90
14749;DHT22;7466;53.574;9.976;2022-10-16T00:33:38;14.40;99.90
14749;DHT22;7466;53.574;9.976;2022-10-16T00:36:06;14.40;99.90
14749;DHT22;7466;53.574;9.976;2022-10-16T00:38:33;14.40;99.90
14749;DHT22;7466;53.574;9.976;2022-10-16T00:41:00;14.50;99.90
14749;DHT22;7466;53.574;9.976;2022-10-16T00:43:37;14.40;99.90
14749;DHT22;7466;53.574;9.976;2022-10-16T00:46:08;14.40;99.90
14749;DHT22;7466;53.574;9.976;2022-10-16T00:48:37;14.50;99.90
14749;DHT22;7466;53.574;9.976;2022-10-16T00:51:06;14.40;99.90
14749;DHT22;7466;53.574;9.976;2022-10-16T00:53:34;14.50;99.90
14749;DHT22;7466;53.574;9.976;2022-10-16T00:56:01;14.50;99.90
14749;DHT22;7466;53.574;9.976;2022-10-16T00:58:28;14.50;99.90
14749;DHT22;7466;53.574;9.976;2022-10-16T01:00:55;14.40;99.90
14749;DHT22;7466;53.574;9.976;2022-10-16T01:03:25;14.40;99.90
14749;DHT22;7466;53.574;9.976;2022-10-16T01:06:02;14.40;99.90
14749;DHT22;7466;53.574;9.976;2022-10-16T01:08:41;14.40;99.90
14749;DHT22;7466;53.574;9.976;2022-10-16T01:11:17;14.40;99.90
14749;DHT22;7466;53.574;9.976;2022-10-16T01:13:48;14.40;99.90
14749;DHT22;7466;53.574;9.976;2022-10-16T01:16:24;14.40;99.90
14749;DHT22;7466;53.574;9.976;2022-10-16T01:18:58;14.40;99.90
14749;DHT22;7466;53.574;9.976;2022-10-16T01:21:32;14.30;99.90
14749;DHT22;7466;53.574;9.976;2022-10-16T01:27:08;14.20;99.90
14749;DHT22;7466;53.574;9.976;2022-10-16T01:29:39;14.20;99.90
14749;DHT22;7466;53.574;9.976;2022-10-16T01:32:11;14.20;99.90
14749;DHT22;7466;53.574;9.976;2022-10-16T01:34:47;14.10;99.90
14749;DHT22;7466;53.574;9.976;2022-10-16T01:37:17;14.10;99.90
14749;DHT22;7466;53.574;9.976;2022-10-16T01:39:47;14.10;99.90
14749;DHT22;7466;53.574;9.976;2022-10-16T01:42:21;14.00;99.90
14749;DHT22;7466;53.574;9.976;2022-10-16T01:44:50;14.00;99.90
14749;DHT22;7466;53.574;9.976;2022-10-16T01:47:19;14.00;99.90
14749;DHT22;7466;53.574;9.976;2022-10-16T01:49:49;14.00;99.90
14749;DHT22;7466;53.574;9.976;2022-10-16T01:52:19;14.00;99.90
14749;DHT22;7466;53.574;9.976;2022-10-16T01:54:49;13.90;99.90
14749;DHT22;7466;53.574;9.976;2022-10-16T01:57:20;13.90;99.90
14749;DHT22;7466;53.574;9.976;2022-10-16T01:59:50;13.90;99.90
14749;DHT22;7466;53.574;9.976;2022-10-16T02:02:20;13.90;99.90
14749;DHT22;7466;53.574;9.976;2022-10-16T02:04:51;13.80;99.90
14749;DHT22;7466;53.574;9.976;2022-10-16T02:07:19;13.90;99.90
14749;DHT22;7466;53.574;9.976;2022-10-16T02:09:46;13.80;99.90
14749;DHT22;7466;53.574;9.976;2022-10-16T02:12:16;13.80;99.90
14749;DHT22;7466;53.574;9.976;2022-10-16T02:14:48;13.80;99.90
14749;DHT22;7466;53.574;9.976;2022-10-16T02:17:16;13.80;99.90
14749;DHT22;7466;53.574;9.976;2022-10-16T02:19:44;13.80;99.90
14749;DHT22;7466;53.574;9.976;2022-10-16T02:22:19;13.70;99.90
14749;DHT22;7466;53.574;9.976;2022-10-16T02:24:53;13.70;99.90
14749;DHT22;7466;53.574;9.976;2022-10-16T02:27:25;13.70;99.90
14749;DHT22;7466;53.574;9.976;2022-10-16T02:29:58;13.70;99.90
14749;DHT22;7466;53.574;9.976;2022-10-16T02:32:30;13.60;99.90
14749;DHT22;7466;53.574;9.976;2022-10-16T02:34:58;13.60;99.90
14749;DHT22;7466;53.574;9.976;2022-10-16T02:37:27;13.60;99.90
14749;DHT22;7466;53.574;9.976;2022-10-16T02:39:55;13.60;99.90
14749;DHT22;7466;53.574;9.976;2022-10-16T02:42:28;13.50;99.90
14749;DHT22;7466;53.574;9.976;2022-10-16T02:44:56;13.50;99.90
14749;DHT22;7466;53.574;9.976;2022-10-16T02:47:23;13.50;99.90
14749;DHT22;7466;53.574;9.976;2022-10-16T02:49:50;13.50;99.90
14749;DHT22;7466;53.574;9.976;2022-10-16T02:52:17;13.50;99.90
14749;DHT22;7466;53.574;9.976;2022-10-16T02:54:43;13.50;99.90
14749;DHT22;7466;53.574;9.976;2022-10-16T02:57:10;13.50;99.90
14749;DHT22;7466;53.574;9.976;2022-10-16T02:59:37;13.50;99.90
14749;DHT22;7466;53.574;9.976;2022-10-16T03:02:05;13.40;99.90
14749;DHT22;7466;53.574;9.976;2022-10-16T03:04:32;13.30;99.90
14749;DHT22;7466;53.574;9.976;2022-10-16T03:06:59;13.30;99.90
14749;DHT22;7466;53.574;9.976;2022-10-16T03:09:25;13.30;99.90
14749;DHT22;7466;53.574;9.976;2022-10-16T03:11:52;13.30;99.90
14749;DHT22;7466;53.574;9.976;2022-10-16T03:14:19;13.30;99.90
14749;DHT22;7466;53.574;9.976;2022-10-16T03:16:46;13.30;99.90
14749;DHT22;7466;53.574;9.976;2022-10-16T03:19:16;13.30;99.90
14749;DHT22;7466;53.574;9.976;2022-10-16T03:21:43;13.30;99.90
14749;DHT22;7466;53.574;9.976;2022-10-16T03:24:09;13.30;99.90
14749;DHT22;7466;53.574;9.976;2022-10-16T03:26:36;13.20;99.90
14749;DHT22;7466;53.574;9.976;2022-10-16T03:29:03;13.20;99.90
14749;DHT22;7466;53.574;9.976;2022-10-16T03:31:30;13.20;99.90
14749;DHT22;7466;53.574;9.976;2022-10-16T03:33:57;13.20;99.90
14749;DHT22;7466;53.574;9.976;2022-10-16T03:36:25;13.20;99.90
14749;DHT22;7466;53.574;9.976;2022-10-16T03:38:52;13.20;99.90
14749;DHT22;7466;53.574;9.976;2022-10-16T03:41:19;13.10;99.90
14749;DHT22;7466;53.574;9.976;2022-10-16T03:43:45;13.20;99.90
14749;DHT22;7466;53.574;9.976;2022-10-16T03:46:12;13.20;99.90
14749;DHT22;7466;53.574;9.976;2022-10-16T03:48:40;13.10;99.90
14749;DHT22;7466;53.574;9.976;2022-10-16T03:51:07;13.10;99.90
14749;DHT22;7466;53.574;9.976;2022-10-16T03:53:35;13.10;99.90
14749;DHT22;7466;53.574;9.976;2022-10-16T03:56:02;13.10;99.90
14749;DHT22;7466;53.574;9.976;2022-10-16T03:58:28;13.10;99.90
14749;DHT22;7466;53.574;9.976;2022-10-16T04:00:55;13.10;99.90
14749;DHT22;7466;53.574;9.976;2022-10-16T04:03:22;13.10;99.90
14749;DHT22;7466;53.574;9.976;2022-10-16T04:05:49;13.10;99.90
14749;DHT22;7466;53.574;9.976;2022-10-16T04:08:16;13.10;99.90
14749;DHT22;7466;53.574;9.976;2022-10-16T04:10:45;13.10;99.90
14749;DHT22;7466;53.574;9.976;2022-10-16T04:13:12;13.10;99.90
14749;DHT22;7466;53.574;9.976;2022-10-16T04:15:39;13.10;99.90
14749;DHT22;7466;53.574;9.976;2022-10-16T04:18:06;13.10;99.90
14749;DHT22;7466;53.574;9.976;2022-10-16T04:20:33;13.10;99.90
14749;DHT22;7466;53.574;9.976;2022-10-16T04:23:00;13.10;99.90
14749;DHT22;7466;53.574;9.976;2022-10-16T04:25:27;13.10;99.90
14749;DHT22;7466;53.574;9.976;2022-10-16T04:27:55;13.10;99.90
14749;DHT22;7466;53.574;9.976;2022-10-16T04:30:23;13.10;99.90
14749;DHT22;7466;53.574;9.976;2022-10-16T04:32:50;13.10;99.90
14749;DHT22;7466;53.574;9.976;2022-10-16T04:35:17;13.10;99.90
14749;DHT22;7466;53.574;9.976;2022-10-16T04:37:44;13.20;99.90
14749;DHT22;7466;53.574;9.976;2022-10-16T04:40:11;13.10;99.90
14749;DHT22;7466;53.574;9.976;2022-10-16T04:42:37;13.10;99.90
14749;DHT22;7466;53.574;9.976;2022-10-16T04:45:07;13.10;99.90
14749;DHT22;7466;53.574;9.976;2022-10-16T04:47:34;13.10;99.90
14749;DHT22;7466;53.574;9.976;2022-10-16T04:50:00;13.10;99.90
14749;DHT22;7466;53.574;9.976;2022-10-16T04:52:28;13.10;99.90
14749;DHT22;7466;53.574;9.976;2022-10-16T04:54:56;13.10;99.90
14749;DHT22;7466;53.574;9.976;2022-10-16T04:57:26;13.00;99.90
14749;DHT22;7466;53.574;9.976;2022-10-16T04:59:53;13.10;99.90
14749;DHT22;7466;53.574;9.976;2022-10-16T05:02:21;13.00;99.90
14749;DHT22;7466;53.574;9.976;2022-10-16T05:04:48;13.10;99.90
14749;DHT22;7466;53.574;9.976;2022-10-16T05:07:15;13.00;99.90
14749;DHT22;7466;53.574;9.976;2022-10-16T05:09:41;13.10;99.90
14749;DHT22;7466;53.574;9.976;2022-10-16T05:12:08;13.10;99.90
14749;DHT22;7466;53.574;9.976;2022-10-16T05:14:35;13.10;99.90
14749;DHT22;7466;53.574;9.976;2022-10-16T05:17:02;13.10;99.90
14749;DHT22;7466;53.574;9.976;2022-10-16T05:19:30;13.10;99.90
14749;DHT22;7466;53.574;9.976;2022-10-16T05:21:57;13.10;99.90
14749;DHT22;7466;53.574;9.976;2022-10-16T05:24:23;13.20;99.90
14749;DHT22;7466;53.574;9.976;2022-10-16T05:26:51;13.20;99.90
14749;DHT22;7466;53.574;9.976;2022-10-16T05:29:17;13.20;99.90
14749;DHT22;7466;53.574;9.976;2022-10-16T05:31:44;13.10;99.90
14749;DHT22;7466;53.574;9.976;2022-10-16T05:34:11;13.10;99.90
14749;DHT22;7466;53.574;9.976;2022-10-16T05:36:39;13.10;99.90
14749;DHT22;7466;53.574;9.976;2022-10-16T05:39:06;13.10;99.90
14749;DHT22;7466;53.574;9.976;2022-10-16T05:41:33;13.20;99.90
14749;DHT22;7466;53.574;9.976;2022-10-16T05:44:00;13.20;99.90
14749;DHT22;7466;53.574;9.976;2022-10-16T05:46:30;13.20;99.90
14749;DHT22;7466;53.574;9.976;2022-10-16T05:48:56;13.20;99.90
14749;DHT22;7466;53.574;9.976;2022-10-16T05:51:23;13.20;99.90
14749;DHT22;7466;53.574;9.976;2022-10-16T05:53:52;13.20;99.90
14749;DHT22;7466;53.574;9.976;2022-10-16T05:56:19;13.20;99.90
14749;DHT22;7466;53.574;9.976;2022-10-16T05:58:46;13.30;99.90
14749;DHT22;7466;53.574;9.976;2022-10-16T06:01:15;13.30;99.90
14749;DHT22;7466;53.574;9.976;2022-10-16T06:03:42;13.30;99.90
14749;DHT22;7466;53.574;9.976;2022-10-16T06:06:10;13.40;99.90
14749;DHT22;7466;53.574;9.976;2022-10-16T06:08:37;13.50;99.90
14749;DHT22;7466;53.574;9.976;2022-10-16T06:11:07;13.50;99.90
14749;DHT22;7466;53.574;9.976;2022-10-16T06:13:34;13.50;99.90
14749;DHT22;7466;53.574;9.976;2022-10-16T06:16:02;13.50;99.90
14749;DHT22;7466;53.574;9.976;2022-10-16T06:18:29;13.50;99.90
14749;DHT22;7466;53.574;9.976;2022-10-16T06:20:57;13.60;99.90
14749;DHT22;7466;53.574;9.976;2022-10-16T06:23:25;13.50;99.90
14749;DHT22;7466;53.574;9.976;2022-10-16T06:25:52;13.50;99.90
14749;DHT22;7466;53.574;9.976;2022-10-16T06:28:20;13.50;99.90
14749;DHT22;7466;53.574;9.976;2022-10-16T06:30:46;13.50;99.90
14749;DHT22;7466;53.574;9.976;2022-10-16T06:33:13;13.50;99.90
14749;DHT22;7466;53.574;9.976;2022-10-16T06:35:40;13.50;99.90
14749;DHT22;7466;53.574;9.976;2022-10-16T06:38:07;13.50;99.90
14749;DHT22;7466;53.574;9.976;2022-10-16T06:40:34;13.50;99.90
14749;DHT22;7466;53.574;9.976;2022-10-16T06:43:00;13.60;99.90
14749;DHT22;7466;53.574;9.976;2022-10-16T06:45:28;13.60;99.90
14749;DHT22;7466;53.574;9.976;2022-10-16T06:47:55;13.70;99.90
14749;DHT22;7466;53.574;9.976;2022-10-16T06:50:22;13.70;99.90
14749;DHT22;7466;53.574;9.976;2022-10-16T06:52:49;13.70;99.90
14749;DHT22;7466;53.574;9.976;2022-10-16T06:55:16;13.70;99.90
14749;DHT22;7466;53.574;9.976;2022-10-16T06:57:43;13.70;99.90
14749;DHT22;7466;53.574;9.976;2022-10-16T07:00:11;13.70;99.90
14749;DHT22;7466;53.574;9.976;2022-10-16T07:02:39;13.80;99.90
14749;DHT22;7466;53.574;9.976;2022-10-16T07:05:06;13.90;99.90
14749;DHT22;7466;53.574;9.976;2022-10-16T07:07:33;14.00;99.90
14749;DHT22;7466;53.574;9.976;2022-10-16T07:10:00;14.10;99.90
14749;DHT22;7466;53.574;9.976;2022-10-16T07:12:27;14.20;99.90
14749;DHT22;7466;53.574;9.976;2022-10-16T07:14:53;14.30;99.90
14749;DHT22;7466;53.574;9.976;2022-10-16T07:17:21;14.40;99.90
14749;DHT22;7466;53.574;9.976;2022-10-16T07:19:49;14.40;99.90
14749;DHT22;7466;53.574;9.976;2022-10-16T07:22:18;14.50;99.90
14749;DHT22;7466;53.574;9.976;2022-10-16T07:24:45;14.50;99.90
14749;DHT22;7466;53.574;9.976;2022-10-16T07:27:12;14.50;99.90
14749;DHT22;7466;53.574;9.976;2022-10-16T07:29:39;14.40;99.90
14749;DHT22;7466;53.574;9.976;2022-10-16T07:32:05;14.40;99.90
14749;DHT22;7466;53.574;9.976;2022-10-16T07:34:32;14.40;99.90
14749;DHT22;7466;53.574;9.976;2022-10-16T07:37:00;14.40;99.90
14749;DHT22;7466;53.574;9.976;2022-10-16T07:39:27;14.40;99.90
14749;DHT22;7466;53.574;9.976;2022-10-16T07:41:54;14.50;99.90
14749;DHT22;7466;53.574;9.976;2022-10-16T07:44:21;14.60;99.90
14749;DHT22;7466;53.574;9.976;2022-10-16T07:46:48;14.60;99.90
14749;DHT22;7466;53.574;9.976;2022-10-16T07:49:14;14.80;99.90
14749;DHT22;7466;53.574;9.976;2022-10-16T07:51:41;14.90;99.90
14749;DHT22;7466;53.574;9.976;2022-10-16T07:54:10;15.00;99.90
14749;DHT22;7466;53.574;9.976;2022-10-16T07:56:36;15.10;99.90
14749;DHT22;7466;53.574;9.976;2022-10-16T07:59:03;15.10;99.90
14749;DHT22;7466;53.574;9.976;2022-10-16T08:01:30;15.00;99.90
14749;DHT22;7466;53.574;9.976;2022-10-16T08:03:57;15.00;99.90
14749;DHT22;7466;53.574;9.976;2022-10-16T08:06:23;14.90;99.90
14749;DHT22;7466;53.574;9.976;2022-10-16T08:08:50;14.90;99.90
14749;DHT22;7466;53.574;9.976;2022-10-16T08:11:18;14.90;99.90
14749;DHT22;7466;53.574;9.976;2022-10-16T08:13:45;14.90;99.90
14749;DHT22;7466;53.574;9.976;2022-10-16T08:16:12;14.80;99.90
14749;DHT22;7466;53.574;9.976;2022-10-16T08:18:40;14.80;99.90
14749;DHT22;7466;53.574;9.976;2022-10-16T08:21:12;14.80;99.90
14749;DHT22;7466;53.574;9.976;2022-10-16T08:23:39;14.80;99.90
14749;DHT22;7466;53.574;9.976;2022-10-16T08:26:07;14.80;99.90
14749;DHT22;7466;53.574;9.976;2022-10-16T08:28:36;15.10;99.90
14749;DHT22;7466;53.574;9.976;2022-10-16T08:31:08;15.30;99.90
14749;DHT22;7466;53.574;9.976;2022-10-16T08:33:35;15.50;99.90
14749;DHT22;7466;53.574;9.976;2022-10-16T08:36:03;16.00;99.90
14749;DHT22;7466;53.574;9.976;2022-10-16T08:38:30;16.20;99.90
14749;DHT22;7466;53.574;9.976;2022-10-16T08:41:13;16.20;99.90
14749;DHT22;7466;53.574;9.976;2022-10-16T08:43:58;16.00;99.90
14749;DHT22;7466;53.574;9.976;2022-10-16T08:46:37;15.90;99.90
14749;DHT22;7466;53.574;9.976;2022-10-16T08:49:12;16.10;99.90
14749;DHT22;7466;53.574;9.976;2022-10-16T08:51:40;16.00;99.90
14749;DHT22;7466;53.574;9.976;2022-10-16T08:54:18;15.90;99.90
14749;DHT22;7466;53.574;9.976;2022-10-16T08:56:47;15.80;99.90
14749;DHT22;7466;53.574;9.976;2022-10-16T08:59:16;15.80;99.90
14749;DHT22;7466;53.574;9.976;2022-10-16T09:01:45;15.80;99.90
14749;DHT22;7466;53.574;9.976;2022-10-16T09:04:29;15.70;99.90
14749;DHT22;7466;53.574;9.976;2022-10-16T09:07:04;15.80;99.90
14749;DHT22;7466;53.574;9.976;2022-10-16T09:09:56;15.90;99.90
14749;DHT22;7466;53.574;9.976;2022-10-16T09:12:27;15.90;99.90
14749;DHT22;7466;53.574;9.976;2022-10-16T09:15:07;16.00;99.90
14749;DHT22;7466;53.574;9.976;2022-10-16T09:17:44;16.00;99.90
14749;DHT22;7466;53.574;9.976;2022-10-16T09:20:20;16.00;99.90
14749;DHT22;7466;53.574;9.976;2022-10-16T09:22:57;16.00;99.90
14749;DHT22;7466;53.574;9.976;2022-10-16T09:25:27;16.10;99.90
14749;DHT22;7466;53.574;9.976;2022-10-16T09:27:54;16.20;99.90
14749;DHT22;7466;53.574;9.976;2022-10-16T09:30:26;16.30;99.90
14749;DHT22;7466;53.574;9.976;2022-10-16T09:32:55;16.40;99.90
14749;DHT22;7466;53.574;9.976;2022-10-16T09:35:31;16.50;99.90
14749;DHT22;7466;53.574;9.976;2022-10-16T09:37:59;16.60;99.90
14749;DHT22;7466;53.574;9.976;2022-10-16T09:40:28;16.60;99.90
14749;DHT22;7466;53.574;9.976;2022-10-16T09:43:03;16.60;99.90
14749;DHT22;7466;53.574;9.976;2022-10-16T09:45:34;16.60;99.90
14749;DHT22;7466;53.574;9.976;2022-10-16T09:48:01;16.60;99.90
14749;DHT22;7466;53.574;9.976;2022-10-16T09:50:36;16.70;90.50
14749;DHT22;7466;53.574;9.976;2022-10-16T09:53:05;16.80;19.70
14749;DHT22;7466;53.574;9.976;2022-10-16T09:55:32;16.90;1.00
14749;DHT22;7466;53.574;9.976;2022-10-16T09:57:59;17.00;1.00
14749;DHT22;7466;53.574;9.976;2022-10-16T10:00:26;17.00;1.00
14749;DHT22;7466;53.574;9.976;2022-10-16T10:02:54;17.00;1.00
14749;DHT22;7466;53.574;9.976;2022-10-16T10:05:23;16.90;1.00
14749;DHT22;7466;53.574;9.976;2022-10-16T10:07:56;17.00;1.00
14749;DHT22;7466;53.574;9.976;2022-10-16T10:10:25;17.00;1.00
14749;DHT22;7466;53.574;9.976;2022-10-16T10:12:53;17.00;1.00
14749;DHT22;7466;53.574;9.976;2022-10-16T10:15:21;17.00;1.00
14749;DHT22;7466;53.574;9.976;2022-10-16T10:17:51;17.00;1.00
14749;DHT22;7466;53.574;9.976;2022-10-16T10:20:28;16.90;1.00
14749;DHT22;7466;53.574;9.976;2022-10-16T10:22:56;17.20;1.00
14749;DHT22;7466;53.574;9.976;2022-10-16T10:25:44;17.30;1.00
14749;DHT22;7466;53.574;9.976;2022-10-16T10:28:49;17.40;1.00
14749;DHT22;7466;53.574;9.976;2022-10-16T10:31:21;17.70;1.00
14749;DHT22;7466;53.574;9.976;2022-10-16T10:33:57;17.80;1.00
14749;DHT22;7466;53.574;9.976;2022-10-16T10:36:32;18.10;1.00
14749;DHT22;7466;53.574;9.976;2022-10-16T10:39:00;18.30;1.00
14749;DHT22;7466;53.574;9.976;2022-10-16T10:41:54;18.40;1.00
14749;DHT22;7466;53.574;9.976;2022-10-16T10:44:36;19.10;1.00
14749;DHT22;7466;53.574;9.976;2022-10-16T10:47:12;19.70;1.00
14749;DHT22;7466;53.574;9.976;2022-10-16T10:49:52;19.50;1.00
14749;DHT22;7466;53.574;9.976;2022-10-16T10:52:34;19.30;1.00
14749;DHT22;7466;53.574;9.976;2022-10-16T10:55:14;19.20;1.00
14749;DHT22;7466;53.574;9.976;2022-10-16T10:57:52;19.30;1.00
14749;DHT22;7466;53.574;9.976;2022-10-16T11:00:28;19.30;1.00
14749;DHT22;7466;53.574;9.976;2022-10-16T11:03:01;19.30;1.00
14749;DHT22;7466;53.574;9.976;2022-10-16T11:05:38;19.10;1.00
14749;DHT22;7466;53.574;9.976;2022-10-16T11:08:12;19.30;1.00
14749;DHT22;7466;53.574;9.976;2022-10-16T11:10:45;19.70;1.00
14749;DHT22;7466;53.574;9.976;2022-10-16T11:13:24;20.00;1.00
14749;DHT22;7466;53.574;9.976;2022-10-16T11:15:57;20.30;1.00
14749;DHT22;7466;53.574;9.976;2022-10-16T11:18:27;20.30;1.00
14749;DHT22;7466;53.574;9.976;2022-10-16T11:21:00;20.60;1.00
14749;DHT22;7466;53.574;9.976;2022-10-16T11:23:33;20.10;1.00
14749;DHT22;7466;53.574;9.976;2022-10-16T11:26:11;20.00;1.00
14749;DHT22;7466;53.574;9.976;2022-10-16T11:28:45;20.20;1.00
14749;DHT22;7466;53.574;9.976;2022-10-16T11:31:17;20.20;1.00
14749;DHT22;7466;53.574;9.976;2022-10-16T11:33:51;20.00;1.00
14749;DHT22;7466;53.574;9.976;2022-10-16T11:36:22;19.40;1.00
14749;DHT22;7466;53.574;9.976;2022-10-16T11:38:57;19.20;1.00
14749;DHT22;7466;53.574;9.976;2022-10-16T11:41:29;19.20;1.00
14749;DHT22;7466;53.574;9.976;2022-10-16T11:44:09;19.10;1.00
14749;DHT22;7466;53.574;9.976;2022-10-16T11:46:44;19.00;1.00
14749;DHT22;7466;53.574;9.976;2022-10-16T11:49:14;18.70;1.00
14749;DHT22;7466;53.574;9.976;2022-10-16T11:51:45;18.70;1.00
14749;DHT22;7466;53.574;9.976;2022-10-16T11:54:20;18.80;1.00
14749;DHT22;7466;53.574;9.976;2022-10-16T11:56:50;18.70;1.00
14749;DHT22;7466;53.574;9.976;2022-10-16T11:59:22;18.60;1.00
14749;DHT22;7466;53.574;9.976;2022-10-16T12:01:57;18.60;1.00
14749;DHT22;7466;53.574;9.976;2022-10-16T12:04:31;18.10;1.00
14749;DHT22;7466;53.574;9.976;2022-10-16T12:07:04;17.90;1.00
14749;DHT22;7466;53.574;9.976;2022-10-16T12:09:37;18.30;1.00
14749;DHT22;7466;53.574;9.976;2022-10-16T12:12:05;18.30;1.00
14749;DHT22;7466;53.574;9.976;2022-10-16T12:15:00;18.10;1.00
14749;DHT22;7466;53.574;9.976;2022-10-16T12:17:34;18.30;1.00
14749;DHT22;7466;53.574;9.976;2022-10-16T12:20:20;18.40;1.00
14749;DHT22;7466;53.574;9.976;2022-10-16T12:22:49;18.90;1.00
14749;DHT22;7466;53.574;9.976;2022-10-16T12:25:24;18.70;1.00
14749;DHT22;7466;53.574;9.976;2022-10-16T12:27:58;19.00;1.00
14749;DHT22;7466;53.574;9.976;2022-10-16T12:30:27;19.30;1.00
14749;DHT22;7466;53.574;9.976;2022-10-16T12:32:56;19.60;1.00
14749;DHT22;7466;53.574;9.976;2022-10-16T12:35:25;20.10;1.00
14749;DHT22;7466;53.574;9.976;2022-10-16T12:37:53;20.50;1.00
14749;DHT22;7466;53.574;9.976;2022-10-16T12:40:27;20.30;1.00
14749;DHT22;7466;53.574;9.976;2022-10-16T12:42:55;20.70;1.00
14749;DHT22;7466;53.574;9.976;2022-10-16T12:45:28;20.60;1.00
14749;DHT22;7466;53.574;9.976;2022-10-16T12:47:57;20.50;1.00
14749;DHT22;7466;53.574;9.976;2022-10-16T12:50:27;20.50;1.00
14749;DHT22;7466;53.574;9.976;2022-10-16T12:52:56;20.60;1.00
14749;DHT22;7466;53.574;9.976;2022-10-16T12:55:24;21.20;1.00
14749;DHT22;7466;53.574;9.976;2022-10-16T12:58:20;21.30;1.00
14749;DHT22;7466;53.574;9.976;2022-10-16T13:00:56;21.00;1.00
14749;DHT22;7466;53.574;9.976;2022-10-16T13:03:58;21.50;1.00
14749;DHT22;7466;53.574;9.976;2022-10-16T13:06:35;21.60;1.00
14749;DHT22;7466;53.574;9.976;2022-10-16T13:09:23;21.20;1.00
14749;DHT22;7466;53.574;9.976;2022-10-16T13:12:12;21.30;1.00
14749;DHT22;7466;53.574;9.976;2022-10-16T13:15:01;20.80;1.00
14749;DHT22;7466;53.574;9.976;2022-10-16T13:17:36;21.00;1.00
14749;DHT22;7466;53.574;9.976;2022-10-16T13:20:12;21.00;1.00
14749;DHT22;7466;53.574;9.976;2022-10-16T13:22:51;20.90;1.00
14749;DHT22;7466;53.574;9.976;2022-10-16T13:25:24;21.10;1.00
14749;DHT22;7466;53.574;9.976;2022-10-16T13:27:55;21.50;1.00
14749;DHT22;7466;53.574;9.976;2022-10-16T13:30:34;20.60;1.00
14749;DHT22;7466;53.574;9.976;2022-10-16T13:33:06;20.70;1.00
14749;DHT22;7466;53.574;9.976;2022-10-16T13:35:35;20.80;1.00
14749;DHT22;7466;53.574;9.976;2022-10-16T13:38:11;20.50;1.00
14749;DHT22;7466;53.574;9.976;2022-10-16T13:40:52;21.20;1.00
14749;DHT22;7466;53.574;9.976;2022-10-16T13:43:22;21.50;1.00
14749;DHT22;7466;53.574;9.976;2022-10-16T13:45:55;21.00;1.00
14749;DHT22;7466;53.574;9.976;2022-10-16T13:48:22;20.90;1.00
14749;DHT22;7466;53.574;9.976;2022-10-16T13:51:03;20.70;1.00
14749;DHT22;7466;53.574;9.976;2022-10-16T13:53:31;20.30;1.00
14749;DHT22;7466;53.574;9.976;2022-10-16T13:55:58;21.20;1.00
14749;DHT22;7466;53.574;9.976;2022-10-16T13:58:26;22.00;1.00
14749;DHT22;7466;53.574;9.976;2022-10-16T14:00:56;20.80;1.00
14749;DHT22;7466;53.574;9.976;2022-10-16T14:03:24;20.60;1.00
14749;DHT22;7466;53.574;9.976;2022-10-16T14:05:53;20.50;1.00
14749;DHT22;7466;53.574;9.976;2022-10-16T14:08:21;20.00;1.00
14749;DHT22;7466;53.574;9.976;2022-10-16T14:10:50;19.50;1.00
14749;DHT22;7466;53.574;9.976;2022-10-16T14:13:19;19.20;1.00
14749;DHT22;7466;53.574;9.976;2022-10-16T14:15:47;19.30;1.00
14749;DHT22;7466;53.574;9.976;2022-10-16T14:18:20;19.40;1.00
14749;DHT22;7466;53.574;9.976;2022-10-16T14:20:48;19.50;1.00
14749;DHT22;7466;53.574;9.976;2022-10-16T14:23:21;19.30;1.00
14749;DHT22;7466;53.574;9.976;2022-10-16T14:25:49;18.90;1.00
14749;DHT22;7466;53.574;9.976;2022-10-16T14:28:18;19.00;1.00
14749;DHT22;7466;53.574;9.976;2022-10-16T14:30:53;19.00;1.00
14749;DHT22;7466;53.574;9.976;2022-10-16T14:33:24;18.70;1.00
14749;DHT22;7466;53.574;9.976;2022-10-16T14:36:10;18.60;1.00
14749;DHT22;7466;53.574;9.976;2022-10-16T14:38:38;18.60;1.00
14749;DHT22;7466;53.574;9.976;2022-10-16T14:41:06;18.60;1.00
14749;DHT22;7466;53.574;9.976;2022-10-16T14:43:34;18.50;1.00
14749;DHT22;7466;53.574;9.976;2022-10-16T14:46:05;18.60;1.00
14749;DHT22;7466;53.574;9.976;2022-10-16T14:48:34;18.40;1.00
14749;DHT22;7466;53.574;9.976;2022-10-16T14:51:01;18.30;99.90
14749;DHT22;7466;53.574;9.976;2022-10-16T14:53:28;18.10;99.90
14749;DHT22;7466;53.574;9.976;2022-10-16T14:55:54;18.00;99.90
14749;DHT22;7466;53.574;9.976;2022-10-16T14:58:22;18.00;99.90
14749;DHT22;7466;53.574;9.976;2022-10-16T15:00:50;18.00;99.90
14749;DHT22;7466;53.574;9.976;2022-10-16T15:03:17;17.90;99.90
14749;DHT22;7466;53.574;9.976;2022-10-16T15:05:45;17.90;99.90
14749;DHT22;7466;53.574;9.976;2022-10-16T15:08:12;17.80;99.90
14749;DHT22;7466;53.574;9.976;2022-10-16T15:10:41;17.80;99.90
14749;DHT22;7466;53.574;9.976;2022-10-16T15:13:11;17.70;99.90
14749;DHT22;7466;53.574;9.976;2022-10-16T15:15:42;17.60;99.90
14749;DHT22;7466;53.574;9.976;2022-10-16T15:18:09;17.60;99.90
14749;DHT22;7466;53.574;9.976;2022-10-16T15:20:38;17.50;99.90
14749;DHT22;7466;53.574;9.976;2022-10-16T15:23:12;17.50;99.90
14749;DHT22;7466;53.574;9.976;2022-10-16T15:25:42;17.40;99.90
14749;DHT22;7466;53.574;9.976;2022-10-16T15:28:10;17.40;99.90
14749;DHT22;7466;53.574;9.976;2022-10-16T15:30:38;17.30;99.90
14749;DHT22;7466;53.574;9.976;2022-10-16T15:33:11;17.30;99.90
14749;DHT22;7466;53.574;9.976;2022-10-16T15:35:38;17.20;99.90
14749;DHT22;7466;53.574;9.976;2022-10-16T15:38:08;17.20;99.90
14749;DHT22;7466;53.574;9.976;2022-10-16T15:40:35;17.10;99.90
14749;DHT22;7466;53.574;9.976;2022-10-16T15:43:02;17.00;99.90
14749;DHT22;7466;53.574;9.976;2022-10-16T15:45:29;17.10;99.90
14749;DHT22;7466;53.574;9.976;2022-10-16T15:47:56;16.90;99.90
14749;DHT22;7466;53.574;9.976;2022-10-16T15:50:23;16.90;99.90
14749;DHT22;7466;53.574;9.976;2022-10-16T15:52:50;16.80;99.90
14749;DHT22;7466;53.574;9.976;2022-10-16T15:55:18;16.80;99.90
14749;DHT22;7466;53.574;9.976;2022-10-16T15:57:45;16.70;99.90
14749;DHT22;7466;53.574;9.976;2022-10-16T16:00:14;16.60;99.90
14749;DHT22;7466;53.574;9.976;2022-10-16T16:02:41;16.50;99.90
14749;DHT22;7466;53.574;9.976;2022-10-16T16:05:09;16.40;99.90
14749;DHT22;7466;53.574;9.976;2022-10-16T16:07:37;16.40;99.90
14749;DHT22;7466;53.574;9.976;2022-10-16T16:10:06;16.30;99.90
14749;DHT22;7466;53.574;9.976;2022-10-16T16:12:35;16.20;99.90